Latest Weather Observations for Gold Coast Seaway

IDQ60801

Issued at 11:05 pm EST Tuesday 22 July 2014 (issued every 30 minutes, with the page automatically refreshed every 10 minutes)

About weather observations | Map of weather stations | Latest weather observations for QLD | Other Formats
Station Details ID: 040764 Name: GOLD COAST SEAWAY Lat: -27.94 Lon: 153.43 Height: 2.98 m
Data from the previous 72 hours. | See also: Recent months at Gold Coast Seaway
Date/Time
EST
Temp
°C
App
Temp
°C
Dew
Point
Rel
Hum
%
Delta-T
°C
Wind Press
QNH
hPa
Press
MSL
hPa
Rain
since 9 am
mm
Dir
 
Spd
km/h
Gust
km/h
Spd
kts
Gust
kts
22/11:00pm 13.1 11.3 10.8 86 1.2 WSW 11 13 6 7 1021.5 1021.5 4.8
22/10:30pm 13.4 12.0 10.9 85 1.3 SW 9 13 5 7 1021.8 - 4.8
22/10:00pm 14.4 12.6 11.0 80 1.8 SW 11 15 6 8 1022.0 1022.0 4.8
22/09:30pm 14.8 10.1 12.1 84 1.5 SE 28 33 15 18 1021.9 - 4.8
22/09:00pm 13.6 10.8 11.5 87 1.1 SSW 17 26 9 14 1021.8 1021.8 4.6
22/08:30pm 14.1 11.7 12.5 90 0.9 SSW 17 26 9 14 1021.8 - 4.2
22/08:00pm 15.1 12.5 13.1 88 1.1 S 19 28 10 15 1021.7 1021.7 4.2
22/07:30pm 14.4 12.5 13.0 91 0.8 S 15 19 8 10 1021.6 - 4.2
22/07:00pm 15.3 12.4 13.0 86 1.3 SSE 20 32 11 17 1021.4 1021.4 4.2
22/06:30pm 15.2 10.3 12.7 85 1.4 SSE 30 37 16 20 1021.1 - 4.2
22/06:00pm 15.3 14.9 14.0 92 0.7 S 9 13 5 7 1020.6 1020.6 4.2
22/05:30pm 15.7 14.5 14.1 90 0.9 SSW 13 19 7 10 1020.9 - 3.0
22/05:00pm 16.6 14.5 13.7 83 1.6 SSE 17 20 9 11 1020.2 1020.2 1.4
22/04:30pm 17.2 13.6 13.1 77 2.3 SSE 24 30 13 16 1019.7 - 0.6
22/04:00pm 17.5 12.4 13.0 75 2.5 SE 32 37 17 20 1019.5 1019.5 0.6
22/03:30pm 17.3 12.6 14.2 82 1.8 SSE 32 37 17 20 1019.3 - 0.6
22/03:00pm 18.3 13.0 13.0 71 3.0 SE 33 39 18 21 1018.9 1018.9 0.0
22/02:30pm 19.5 14.4 13.0 66 3.7 SE 32 37 17 20 1018.7 - 0.0
22/02:00pm 19.7 16.9 13.2 66 3.7 SE 20 28 11 15 1019.0 1019.0 0.0
22/01:30pm 18.7 15.7 14.8 78 2.3 ESE 24 28 13 15 1019.3 - 0.0
22/01:00pm 17.2 14.0 11.9 71 2.9 SE 20 22 11 12 1019.6 1019.6 0.0
22/12:30pm 20.0 16.4 11.7 59 4.6 SE 22 28 12 15 1019.8 - 0.0
22/12:00pm 20.1 16.9 11.8 59 4.6 SE 20 26 11 14 1020.3 1020.3 0.0
22/11:30am 20.6 18.6 11.5 56 5.0 E 13 17 7 9 1020.9 - 0.0
22/11:00am 19.3 17.6 10.0 55 5.0 ENE 9 13 5 7 1021.5 1021.5 0.0
22/10:30am 19.8 18.4 10.8 56 4.9 ENE 9 11 5 6 1021.9 - 0.0
22/10:00am 19.4 18.7 11.9 62 4.1 ENE 7 9 4 5 1022.0 1022.0 0.0
22/09:30am 18.8 18.6 11.9 64 3.8 S 4 7 2 4 1022.2 - 0.0
22/09:00am 17.0 15.8 9.7 62 3.8 SSW 6 7 3 4 1022.3 1022.3 0.0
22/08:30am 16.0 15.8 10.5 70 2.9 WSW 2 7 1 4 1022.2 - 0.0
22/08:00am 14.6 13.1 10.6 77 2.1 W 9 11 5 6 1022.1 1022.1 0.0
22/07:30am 13.3 11.8 10.7 84 1.4 WSW 9 11 5 6 1021.9 - 0.0
22/07:00am 12.2 10.2 10.3 88 1.0 WSW 11 13 6 7 1021.5 1021.5 0.0
22/06:30am 12.2 10.3 10.4 89 0.9 WSW 11 13 6 7 1021.3 - 0.0
22/06:00am 12.3 10.4 10.5 89 0.9 WSW 11 13 6 7 1021.0 1021.0 0.0
22/05:30am 12.1 10.6 10.5 90 0.8 WSW 9 13 5 7 1020.9 - 0.0
22/05:00am 12.0 10.1 10.6 91 0.7 WSW 11 13 6 7 1020.7 1020.7 0.0
22/04:30am 11.5 9.4 9.9 90 0.8 SSW 11 13 6 7 1020.5 - 0.0
22/04:00am 12.0 10.4 10.2 89 0.9 SW 9 13 5 7 1020.7 1020.7 0.0
22/03:30am 12.3 10.1 10.7 90 0.8 W 13 15 7 8 1020.9 - 0.0
22/03:00am 12.4 10.6 11.0 91 0.7 SW 11 13 6 7 1020.9 1020.9 0.0
22/02:30am 12.0 10.1 10.6 91 0.7 SW 11 13 6 7 1020.8 - 0.0
22/02:00am 12.2 11.0 10.4 89 0.9 SSW 7 9 4 5 1020.9 1020.9 0.0
22/01:30am 12.4 10.5 10.6 89 0.9 SW 11 13 6 7 1021.1 - 0.0
22/01:00am 12.5 10.5 10.2 86 1.2 SW 11 13 6 7 1021.6 1021.6 0.0
22/12:30am 12.8 10.9 10.5 86 1.2 SW 11 13 6 7 1021.7 - 0.0
22/12:00am 13.2 11.4 10.7 85 1.3 WSW 11 13 6 7 1021.7 1021.7 0.0
 
Date/Time
EST
Temp
°C
App
Temp
°C
Dew
Point
Rel
Hum
%
Delta-T
°C
Wind Press
QNH
hPa
Press
MSL
hPa
Rain
since 9 am
mm
Dir
 
Spd
km/h
Gust
km/h
Spd
kts
Gust
kts
21/11:30pm 13.1 11.2 10.6 85 1.3 SW 11 13 6 7 1021.8 - 0.0
21/11:00pm 13.4 12.0 10.9 85 1.3 SW 9 11 5 6 1022.1 1022.1 0.0
21/10:30pm 13.5 12.0 10.7 83 1.5 SSW 9 11 5 6 1022.2 - 0.0
21/10:00pm 14.4 12.3 11.2 81 1.7 SSW 13 17 7 9 1022.3 1022.3 0.0
21/09:30pm 14.6 11.8 11.2 80 1.8 SSW 17 20 9 11 1022.2 - 0.0
21/09:00pm 14.8 12.0 11.2 79 1.9 S 17 22 9 12 1022.2 1022.2 0.0
21/08:30pm 15.3 11.9 11.3 77 2.1 S 20 26 11 14 1022.4 - 0.0
21/08:00pm 15.8 12.5 11.6 76 2.3 S 20 32 11 17 1022.4 1022.4 0.0
21/07:30pm 16.7 11.5 12.7 77 2.2 S 32 37 17 20 1022.3 - 0.0
21/07:00pm 17.3 12.7 13.6 79 2.1 SSE 30 37 16 20 1022.1 1022.1 0.0
21/06:30pm 17.2 12.8 12.9 76 2.4 SSE 28 33 15 18 1021.9 - 0.0
21/06:00pm 17.3 13.2 12.6 74 2.6 SSE 26 32 14 17 1021.7 1021.7 0.0
21/05:30pm 18.0 13.3 13.1 73 2.8 SSE 30 33 16 18 1021.3 - 0.0
21/05:00pm 18.1 13.5 12.3 69 3.2 SSE 28 35 15 19 1021.1 1021.1 0.0
21/04:30pm 19.1 14.6 12.6 66 3.6 SSE 28 35 15 19 1020.8 - 0.0
21/04:00pm 19.7 15.0 13.2 66 3.7 SSE 30 35 16 19 1020.7 1020.7 0.0
21/03:30pm 19.4 14.8 12.4 64 3.9 SSE 28 32 15 17 1020.6 - 0.0
21/03:00pm 20.1 15.3 11.8 59 4.6 SSE 28 33 15 18 1020.4 1020.4 0.0
21/02:30pm 20.6 16.5 12.6 60 4.5 SSE 26 32 14 17 1020.2 - 0.0
21/02:00pm 20.9 16.9 11.8 56 5.1 SSE 24 30 13 16 1020.2 1020.2 0.0
21/01:30pm 20.9 16.9 13.1 61 4.4 SSE 26 32 14 17 1020.2 - 0.0
21/01:00pm 20.3 16.1 12.5 61 4.4 SSE 26 30 14 16 1020.7 1020.7 0.0
21/12:30pm 20.4 16.7 12.6 61 4.4 SSE 24 30 13 16 1021.2 - 0.0
21/12:00pm 21.1 17.6 12.3 57 4.9 SSE 22 28 12 15 1021.7 1021.7 0.0
21/11:30am 20.0 16.7 11.5 58 4.7 S 20 28 11 15 1022.2 - 0.0
21/11:00am 20.7 17.5 11.3 55 5.2 S 19 26 10 14 1022.6 1022.6 0.0
21/10:30am 20.3 17.0 11.5 57 4.9 S 20 28 11 15 1022.8 - 0.0
21/10:00am 19.9 16.6 12.7 63 4.0 S 22 30 12 16 1023.0 1023.0 0.0
21/09:30am 17.8 12.6 12.7 72 2.8 S 32 41 17 22 1023.2 - 0.0
21/09:00am 17.1 12.8 12.0 72 2.8 S 26 33 14 18 1023.3 1023.3 -
21/08:30am 16.6 14.2 11.3 71 2.9 SSW 15 20 8 11 1023.1 - -
21/08:00am 16.2 14.2 11.6 74 2.5 S 13 17 7 9 1022.9 1022.9 -
21/07:30am 14.3 12.9 12.3 88 1.1 SSW 11 15 6 8 1022.5 - -
21/07:00am 12.5 11.0 10.4 87 1.1 SSW 9 11 5 6 1022.1 1022.1 -
21/06:30am 12.9 11.4 10.6 86 1.2 SW 9 11 5 6 1021.9 - -
21/06:00am 12.7 11.2 10.4 86 1.2 SSW 9 13 5 7 1021.5 1021.5 -
21/05:30am 12.8 11.0 9.6 81 1.6 SSW 9 11 5 6 1021.1 - -
21/05:00am 13.5 11.5 10.3 81 1.7 SSW 11 15 6 8 1021.1 1021.1 -
21/04:30am 13.9 12.4 10.7 81 1.7 SW 9 13 5 7 1020.9 - -
21/04:00am 13.8 11.9 10.6 81 1.7 SW 11 15 6 8 1020.8 1020.8 -
21/03:30am 13.9 12.3 11.4 85 1.3 SSW 11 17 6 9 1020.8 - -
21/03:00am 12.6 10.9 10.0 84 1.3 S 9 13 5 7 1020.8 1020.8 -
21/02:30am 12.9 11.6 9.9 82 1.5 SW 7 9 4 5 1021.0 - -
21/02:00am 13.7 12.4 9.9 78 2.0 SSW 7 9 4 5 1021.1 1021.1 -
21/01:30am 14.0 13.3 10.2 78 2.0 SSW 4 7 2 4 1021.3 - -
21/01:00am 14.3 12.8 10.5 78 2.0 SW 9 13 5 7 1021.4 1021.4 0.0
21/12:30am 14.4 12.6 10.8 79 1.9 SSW 11 15 6 8 1021.4 - 0.0
21/12:00am 14.6 13.2 10.8 78 2.0 SW 9 13 5 7 1021.2 1021.2 0.0
 
Date/Time
EST
Temp
°C
App
Temp
°C
Dew
Point
Rel
Hum
%
Delta-T
°C
Wind Press
QNH
hPa
Press
MSL
hPa
Rain
since 9 am
mm
Dir
 
Spd
km/h
Gust
km/h
Spd
kts
Gust
kts
20/11:30pm 15.2 13.1 11.0 76 2.2 SSW 13 19 7 10 1021.4 - 0.0
20/11:00pm 15.4 12.6 11.2 76 2.2 SSW 17 26 9 14 1021.6 1021.6 0.0
20/10:30pm 15.4 11.9 10.2 71 2.7 S 19 28 10 15 1021.7 - 0.0
20/10:00pm 15.1 13.4 9.7 70 2.8 WSW 9 11 5 6 1021.8 1021.8 0.0
20/09:30pm 14.3 12.4 9.1 71 2.6 SSW 9 11 5 6 1021.5 - 0.0
20/09:00pm 14.7 12.9 9.3 70 2.8 WSW 9 11 5 6 1021.4 1021.4 0.0
20/08:30pm 14.1 12.4 8.5 69 2.8 SW 7 9 4 5 1021.1 - 0.0
20/08:00pm 14.2 11.6 7.7 65 3.2 S 11 13 6 7 1021.2 1021.2 0.0
20/07:30pm 15.2 12.7 8.0 62 3.6 S 11 13 6 7 1020.9 - 0.0
20/07:00pm 16.0 12.7 8.2 60 3.9 S 15 22 8 12 1020.7 1020.7 0.0
20/06:30pm 16.7 13.8 8.1 57 4.4 SSW 13 22 7 12 1020.4 - 0.0
20/06:00pm 16.7 13.7 7.6 55 4.6 SSW 13 19 7 10 1020.3 1020.3 0.0
20/05:30pm 17.5 13.3 7.3 51 5.1 S 19 24 10 13 1020.0 - 0.0
20/05:00pm 18.3 13.4 7.1 48 5.6 S 22 28 12 15 1019.5 1019.5 0.0
20/04:30pm 19.5 15.2 6.9 44 6.4 S 19 24 10 13 1019.3 - 0.0
20/04:00pm 20.3 16.0 7.0 42 6.7 S 19 28 10 15 1019.0 1019.0 0.0
20/03:30pm 21.3 17.0 7.2 40 7.2 S 19 26 10 14 1019.0 - 0.0
20/03:00pm 21.5 17.6 7.0 39 7.4 SSW 17 24 9 13 1019.0 1019.0 0.0
20/02:30pm 21.6 17.1 7.1 39 7.4 SSW 20 32 11 17 1019.1 - 0.0
20/02:00pm 21.2 15.8 7.8 42 6.9 S 26 33 14 18 1019.0 1019.0 0.0
20/01:30pm 21.5 16.7 8.7 44 6.8 S 24 32 13 17 1019.2 - 0.0
20/01:00pm 20.7 15.5 8.7 46 6.3 SSE 26 30 14 16 1019.1 1019.1 0.0
20/12:30pm 20.7 16.0 9.3 48 6.1 SSE 24 30 13 16 1019.2 - 0.0
20/12:00pm 20.3 16.2 8.6 47 6.1 SSE 20 26 11 14 1019.4 1019.4 0.0
20/11:30am 20.4 16.1 7.7 44 6.5 S 20 30 11 16 1019.7 - 0.0
20/11:00am 19.9 15.6 7.9 46 6.2 S 20 28 11 15 1019.9 1019.9 0.0
20/10:30am 19.5 14.5 6.3 42 6.6 S 22 30 12 16 1020.1 - 0.0
20/10:00am 19.2 14.3 6.7 44 6.2 S 22 28 12 15 1020.3 1020.3 0.0
20/09:30am 18.0 14.4 4.9 42 6.3 S 13 22 7 12 1020.5 - 0.0
20/09:00am 17.1 13.8 4.8 44 5.8 SSW 11 17 6 9 1020.7 1020.7 0.0
20/08:30am 15.8 12.9 4.5 47 5.3 SW 9 13 5 7 1020.9 - 0.0
20/08:00am 14.8 11.3 3.6 47 5.1 SW 11 17 6 9 1020.6 1020.6 0.0
20/07:30am 13.1 10.5 4.0 54 4.1 WSW 7 11 4 6 1020.4 - 0.0
20/07:00am 11.9 8.4 3.4 56 3.7 WSW 11 13 6 7 1020.3 1020.3 0.0
20/06:30am 10.7 7.5 3.0 59 3.3 W 9 11 5 6 1019.9 - 0.0
20/06:00am 11.5 8.3 2.8 55 3.8 SW 9 11 5 6 1019.6 1019.6 0.0
20/05:30am 11.8 8.2 2.8 54 3.9 SW 11 15 6 8 1019.2 - 0.0
20/05:00am 12.4 8.9 3.4 54 4.0 W 11 15 6 8 1019.3 1019.3 0.0
20/04:30am 13.2 9.3 3.3 51 4.4 SW 13 17 7 9 1019.2 - 0.0
20/04:00am 13.6 9.8 3.7 51 4.5 SW 13 22 7 12 1019.2 1019.2 0.0
20/03:30am 13.0 8.7 3.1 51 4.4 SW 15 20 8 11 1019.6 - 0.0
20/03:00am 12.5 9.4 3.5 54 4.0 W 9 13 5 7 1019.5 1019.5 0.0
20/02:30am 11.5 8.2 4.3 61 3.2 W 11 15 6 8 1019.2 - 0.0
20/02:00am 10.8 7.9 4.7 66 2.7 WNW 9 11 5 6 1019.3 1019.3 0.0
20/01:30am 11.3 8.3 4.3 62 3.1 SW 9 13 5 7 1019.3 - 0.0
20/01:00am 10.2 7.1 3.7 64 2.8 SW 9 11 5 6 1019.4 1019.4 0.0
20/12:30am 11.6 8.6 4.1 60 3.4 SSW 9 11 5 6 1019.3 - 0.0
20/12:00am 11.7 8.7 4.2 60 3.4 SW 9 15 5 8 1019.4 1019.4 0.0
 
Date/Time
EST
Temp
°C
App
Temp
°C
Dew
Point
Rel
Hum
%
Delta-T
°C
Wind Press
QNH
hPa
Press
MSL
hPa
Rain
since 9 am
mm
Dir
 
Spd
km/h
Gust
km/h
Spd
kts
Gust
kts
19/11:30pm 11.7 8.2 3.5 57 3.6 WSW 11 13 6 7 1019.6 - 0.0

Other Formats:

Comma delimited format used in spreadsheet applications
http://www.bom.gov.au/fwo/IDQ60801/IDQ60801.94580.axf

JavaScript Object Notation format (JSON) in row-major order
http://www.bom.gov.au/fwo/IDQ60801/IDQ60801.94580.json